createdAt,value
2019-01-05T00:02:56.911Z,101655.56
2019-01-05T00:07:23.087Z,101642.22
2019-01-05T00:11:53.308Z,101632.11
2019-01-05T00:16:34.619Z,101640.61
2019-01-05T00:21:09.303Z,101629.81
2019-01-05T00:25:38.383Z,101627.33
2019-01-05T00:30:09.857Z,101619.28
2019-01-05T00:34:51.858Z,101619.67
2019-01-05T00:39:21.282Z,101627.70
2019-01-05T00:43:50.233Z,101636.19
2019-01-05T00:48:26.993Z,101632.39
2019-01-05T00:52:54.056Z,101632.68
2019-01-05T00:57:20.572Z,101620.55
2019-01-05T01:01:59.102Z,101625.41
2019-01-05T01:06:43.381Z,101621.09
2019-01-05T01:11:10.641Z,101625.97
2019-01-05T01:15:34.926Z,101620.34
2019-01-05T01:20:00.782Z,101625.61
2019-01-05T01:24:27.605Z,101628.20
2019-01-05T01:28:53.135Z,101614.70
2019-01-05T01:33:38.227Z,101611.99
2019-01-05T01:38:41.293Z,101601.91
2019-01-05T01:43:10.106Z,101580.12
2019-01-05T01:47:36.777Z,101569.32
2019-01-05T01:52:04.118Z,101571.20
2019-01-05T01:56:37.330Z,101571.88
2019-01-05T02:01:03.727Z,101574.32
2019-01-05T02:05:35.658Z,101573.43
2019-01-05T02:10:03.553Z,101576.61
2019-01-05T02:14:32.966Z,101564.83
2019-01-05T02:19:30.119Z,101572.30
2019-01-05T02:24:54.390Z,101567.69
2019-01-05T02:30:30.780Z,101559.90
2019-01-05T02:35:36.857Z,101553.86
2019-01-05T02:41:11.190Z,101548.81
2019-01-05T02:46:36.860Z,101537.98
2019-01-05T02:51:42.226Z,101521.47
2019-01-05T02:57:20.108Z,101504.19
2019-01-05T03:02:50.136Z,101489.39
2019-01-05T03:08:18.656Z,101473.48
2019-01-05T03:13:34.677Z,101468.35
2019-01-05T03:18:57.936Z,101456.90
2019-01-05T03:24:38.127Z,101452.19
2019-01-05T03:29:51.204Z,101449.99
2019-01-05T03:35:09.630Z,101441.20
2019-01-05T03:40:13.831Z,101433.96
2019-01-05T03:45:31.482Z,101429.38
2019-01-05T03:50:54.584Z,101423.63
2019-01-05T03:56:25.107Z,101418.81
2019-01-05T04:01:47.555Z,101413.84
2019-01-05T04:07:16.702Z,101403.27
2019-01-05T04:13:26.021Z,101396.05
2019-01-05T04:18:47.362Z,101386.39
2019-01-05T04:24:01.919Z,101380.47
2019-01-05T04:29:27.480Z,101375.63
2019-01-05T04:34:55.739Z,101367.88
2019-01-05T04:40:39.208Z,101366.87
2019-01-05T04:46:13.818Z,101363.13
2019-01-05T04:52:01.314Z,101365.52
2019-01-05T04:57:36.388Z,101347.53
2019-01-05T05:02:46.592Z,101332.03
2019-01-05T05:08:23.823Z,101314.08
2019-01-05T05:13:31.450Z,101300.81
2019-01-05T05:18:42.206Z,101312.88
2019-01-05T05:24:55.316Z,101314.87
2019-01-05T05:30:29.025Z,101300.07
2019-01-05T05:36:36.034Z,101316.72
2019-01-05T05:42:01.517Z,101322.46
2019-01-05T05:47:30.610Z,101302.77
2019-01-05T05:58:35.647Z,101265.30
2019-01-05T06:04:00.998Z,101252.50
2019-01-05T06:09:35.205Z,101237.13
2019-01-05T06:15:03.745Z,101239.89
2019-01-05T06:20:46.146Z,101241.31
2019-01-05T06:26:28.515Z,101233.10
2019-01-05T06:31:47.279Z,101226.49
2019-01-05T06:37:06.159Z,101229.70
2019-01-05T06:42:55.368Z,101224.02
2019-01-05T06:48:39.132Z,101219.47
2019-01-05T06:54:04.733Z,101206.52
2019-01-05T06:59:59.621Z,101206.13
2019-01-05T07:05:17.404Z,101184.72
2019-01-05T07:10:44.218Z,101192.43
2019-01-05T07:16:46.611Z,101204.23
2019-01-05T07:22:16.657Z,101205.16
2019-01-05T07:27:48.329Z,101199.93
2019-01-05T07:33:30.623Z,101202.33
2019-01-05T07:39:11.276Z,101218.10
2019-01-05T07:44:44.458Z,101215.08
2019-01-05T07:50:19.757Z,101207.71
2019-01-05T07:56:23.725Z,101210.01
2019-01-05T08:02:02.115Z,101211.05
2019-01-05T08:07:36.449Z,101211.17
2019-01-05T08:13:20.958Z,101212.02
2019-01-05T08:18:53.930Z,101205.69
2019-01-05T08:24:27.239Z,101199.91
2019-01-05T08:30:04.715Z,101204.80
2019-01-05T08:35:27.109Z,101198.97
2019-01-05T08:41:08.807Z,101190.63
2019-01-05T08:46:37.674Z,101168.04
2019-01-05T08:52:09.237Z,101168.77
2019-01-05T08:57:35.754Z,101160.48
2019-01-05T09:03:08.014Z,101152.14
2019-01-05T09:08:56.972Z,101144.29
2019-01-05T09:14:18.414Z,101125.84
2019-01-05T09:20:13.135Z,101134.50
2019-01-05T09:25:46.204Z,101142.73
2019-01-05T09:31:32.019Z,101145.09
2019-01-05T09:37:07.501Z,101145.09
2019-01-05T09:42:39.257Z,101149.00
2019-01-05T09:48:15.465Z,101152.44
2019-01-05T09:54:02.890Z,101155.66
2019-01-05T09:59:19.389Z,101155.47
2019-01-05T10:05:12.190Z,101161.03
2019-01-05T10:10:19.532Z,101159.66
2019-01-05T10:15:53.699Z,101155.73
2019-01-05T10:20:47.512Z,101156.13
2019-01-05T10:26:09.162Z,101145.61
2019-01-05T10:31:37.121Z,101138.17
2019-01-05T10:36:45.680Z,101143.53
2019-01-05T10:42:08.645Z,101146.84
2019-01-05T10:47:27.860Z,101148.89
2019-01-05T10:53:01.048Z,101150.66
2019-01-05T10:58:40.722Z,101140.04
2019-01-05T11:03:49.196Z,101123.31
2019-01-05T11:09:10.498Z,101116.31
2019-01-05T11:14:49.152Z,101112.19
2019-01-05T11:20:14.150Z,101099.31
2019-01-05T11:25:51.595Z,101093.11
2019-01-05T11:31:39.277Z,101081.99
2019-01-05T11:37:01.163Z,101083.52
2019-01-05T11:42:45.791Z,101083.78
2019-01-05T11:48:17.942Z,101078.79
2019-01-05T11:54:07.707Z,101081.64
2019-01-05T11:59:37.599Z,101083.23
2019-01-05T12:04:44.930Z,101069.59
2019-01-05T12:10:02.257Z,101078.42
2019-01-05T12:15:09.506Z,101066.29
2019-01-05T12:20:33.757Z,101077.50
2019-01-05T12:26:03.121Z,101068.63
2019-01-05T12:31:34.040Z,101075.52
2019-01-05T12:37:04.147Z,101088.30
2019-01-05T12:42:36.520Z,101094.23
2019-01-05T12:48:14.139Z,101099.61
2019-01-05T12:53:47.109Z,101096.88
2019-01-05T12:59:29.584Z,101103.82
2019-01-05T13:05:03.207Z,101116.90
2019-01-05T13:10:47.436Z,101127.64
2019-01-05T13:16:38.559Z,101126.98
2019-01-05T13:21:53.939Z,101129.35
2019-01-05T13:27:23.191Z,101136.61
2019-01-05T13:33:27.226Z,101128.86
2019-01-05T13:39:10.241Z,101133.56
2019-01-05T13:44:59.114Z,101134.86
2019-01-05T13:50:34.662Z,101146.73
2019-01-05T13:55:09.536Z,101147.57
2019-01-05T13:59:38.674Z,101150.34
2019-01-05T14:04:03.308Z,101165.16
2019-01-05T14:08:27.848Z,101171.97
2019-01-05T14:12:59.488Z,101178.58
2019-01-05T14:17:24.227Z,101173.95
2019-01-05T14:21:47.390Z,101172.28
2019-01-05T14:26:25.382Z,101174.40
2019-01-05T14:31:00.378Z,101179.95
2019-01-05T14:35:24.643Z,101174.47
2019-01-05T14:39:49.582Z,101182.06
2019-01-05T14:44:27.828Z,101177.34
2019-01-05T14:48:53.751Z,101192.44
2019-01-05T14:53:19.781Z,101196.97
2019-01-05T14:57:52.067Z,101192.87
2019-01-05T15:02:16.714Z,101197.19
2019-01-05T15:06:42.621Z,101202.00
2019-01-05T15:11:11.242Z,101199.75
2019-01-05T15:15:40.035Z,101210.42
2019-01-05T15:20:12.974Z,101203.89
2019-01-05T15:24:36.303Z,101203.98
2019-01-05T15:29:02.289Z,101212.16
2019-01-05T15:33:31.139Z,101212.22
2019-01-05T15:37:56.963Z,101215.70
2019-01-05T15:42:22.779Z,101213.19
2019-01-05T15:46:54.733Z,101222.56
2019-01-05T15:51:35.105Z,101218.70
2019-01-05T15:56:01.033Z,101216.53
2019-01-05T16:00:30.153Z,101215.82
2019-01-05T16:04:52.046Z,101237.83
2019-01-05T16:09:15.292Z,101232.34
2019-01-05T16:13:44.288Z,101231.39
2019-01-05T16:18:25.632Z,101236.66
2019-01-05T16:23:01.262Z,101233.28
2019-01-05T16:27:36.852Z,101237.97
2019-01-05T16:31:59.280Z,101234.80
2019-01-05T16:36:23.821Z,101245.59
2019-01-05T16:40:48.823Z,101236.47
2019-01-05T16:45:14.337Z,101239.59
2019-01-05T16:49:46.732Z,101229.53
2019-01-05T16:54:27.237Z,101238.38
2019-01-05T16:58:59.714Z,101234.64
2019-01-05T17:03:34.748Z,101227.25
2019-01-05T17:08:12.504Z,101229.20
2019-01-05T17:12:39.966Z,101217.47
2019-01-05T17:17:13.501Z,101235.61
2019-01-05T17:21:40.518Z,101228.80
2019-01-05T17:26:07.171Z,101221.18
2019-01-05T17:30:29.218Z,101224.55
2019-01-05T17:34:55.213Z,101231.17
2019-01-05T17:39:28.886Z,101229.48
2019-01-05T17:43:56.540Z,101229.35
2019-01-05T17:48:20.083Z,101235.84
2019-01-05T17:52:52.572Z,101235.56
2019-01-05T17:57:19.810Z,101234.56
2019-01-05T18:01:56.809Z,101239.88
2019-01-05T18:06:21.489Z,101234.20
2019-01-05T18:10:57.553Z,101231.75
2019-01-05T18:15:21.848Z,101236.62
2019-01-05T18:19:46.744Z,101233.62
2019-01-05T18:24:24.991Z,101243.00
2019-01-05T18:28:53.180Z,101251.03
2019-01-05T18:33:28.234Z,101237.88
2019-01-05T18:37:48.635Z,101248.26
2019-01-05T18:42:14.504Z,101247.36
2019-01-05T18:46:40.679Z,101256.34
2019-01-05T18:51:09.624Z,101245.13
2019-01-05T18:55:53.909Z,101254.03
2019-01-05T19:00:18.497Z,101255.80
2019-01-05T19:04:58.096Z,101259.06
2019-01-05T19:09:35.770Z,101254.56
2019-01-05T19:14:07.562Z,101258.69
2019-01-05T19:18:48.729Z,101253.25
2019-01-05T19:23:21.216Z,101251.03
2019-01-05T19:27:48.857Z,101255.25
2019-01-05T19:32:14.962Z,101245.77
2019-01-05T19:37:05.692Z,101246.78
2019-01-05T19:41:48.159Z,101251.94
2019-01-05T19:46:22.185Z,101245.50
2019-01-05T19:50:46.913Z,101251.71
2019-01-05T19:55:30.335Z,101252.41
2019-01-05T20:00:10.891Z,101251.44
2019-01-05T20:04:53.424Z,101262.32
2019-01-05T20:09:20.663Z,101262.55
2019-01-05T20:13:45.758Z,101260.69
2019-01-05T20:18:14.441Z,101260.09
2019-01-05T20:22:44.180Z,101258.23
2019-01-05T20:27:28.849Z,101265.89
2019-01-05T20:31:58.732Z,101252.84
2019-01-05T20:36:44.258Z,101245.43
2019-01-05T20:41:10.231Z,101239.14
2019-01-05T20:45:34.869Z,101244.26
2019-01-05T20:50:15.713Z,101243.80
2019-01-05T20:54:38.067Z,101254.31
2019-01-05T20:59:04.889Z,101250.94
2019-01-05T21:03:29.505Z,101251.63
2019-01-05T21:07:56.081Z,101247.28
2019-01-05T21:12:22.278Z,101252.55
2019-01-05T21:16:52.821Z,101252.31
2019-01-05T21:21:23.625Z,101262.52
2019-01-05T21:25:49.719Z,101272.04
2019-01-05T21:30:30.824Z,101277.98
2019-01-05T21:34:56.836Z,101278.53
2019-01-05T21:39:34.529Z,101278.16
2019-01-05T21:43:59.169Z,101283.17
2019-01-05T21:48:34.846Z,101278.30
2019-01-05T21:52:59.348Z,101295.23
2019-01-05T21:57:24.463Z,101288.59
2019-01-05T22:01:43.616Z,101287.67
2019-01-05T22:06:11.572Z,101284.66
2019-01-05T22:10:36.649Z,101281.25
2019-01-05T22:14:59.194Z,101277.31
2019-01-05T22:19:24.699Z,101266.17
2019-01-05T22:24:05.802Z,101265.80
2019-01-05T22:28:43.973Z,101265.71
2019-01-05T22:33:09.537Z,101232.53
2019-01-05T22:37:36.290Z,101250.78
2019-01-05T22:42:02.390Z,101250.93
2019-01-05T22:46:33.831Z,101247.16
2019-01-05T22:51:00.230Z,101248.84
2019-01-05T22:55:25.453Z,101243.98
2019-01-05T22:59:51.833Z,101249.62
2019-01-05T23:04:20.121Z,101254.05
2019-01-05T23:08:46.798Z,101268.81
2019-01-05T23:13:11.747Z,101263.41
2019-01-05T23:17:49.896Z,101276.46
2019-01-05T23:22:16.292Z,101271.63
2019-01-05T23:26:43.516Z,101278.06
2019-01-05T23:31:08.861Z,101284.56
2019-01-05T23:35:51.036Z,101283.02
2019-01-05T23:40:23.541Z,101282.30
2019-01-05T23:44:49.453Z,101286.56
2019-01-05T23:49:27.668Z,101289.91
2019-01-05T23:53:52.215Z,101297.17
2019-01-05T23:58:46.279Z,101298.00
